Overview Statistics Trail Chart Weather Telemetry Raw packets
 

This is the latest recevied weather packets stored in our database for station/object G8PZT. If no packets are shown the sender has not sent any weather packets the latest 10 day(s).

<< 76 77 78 79 80 >>
Time Temp. Humidity Pressure Rain* Wind** Luminosity Snow
1787755719 27.78° C 19% - 0 mm - - -
1787755202 28.33° C 18% - 0 mm - - -
1787755120 27.22° C 19% - 0 mm - - -
1787754520 27.22° C 19% - 0 mm - - -
1787754003 26.11° C 26% - 0 mm - - -
1787753920 26.11° C 25% - 0 mm - - -
1787753320 25.56° C 24% - 0 mm - - -
1787752803 25.56° C 22% - 0 mm - - -
1787752720 25.56° C 21% - 0 mm - - -
1787752120 26.11° C 21% - 0 mm - - -
1787751602 26.11° C 20% - 0 mm - - -
1787751520 26.11° C 20% - 0 mm - - -
1787750920 26.11° C 21% - 0 mm - - -
1787750320 26.67° C 19% - 0 mm - - -
1787749719 27.22° C 18% - 0 mm - - -
1787749202 26.67° C 21% - 0 mm - - -
1787749119 26.11° C 22% - 0 mm - - -
1787748519 26.11° C 20% - 0 mm - - -
1787748002 26.11° C 19% - 0 mm - - -
1787747919 26.67° C 19% - 0 mm - - -
1787747320 26.11° C 20% - 0 mm - - -
1787746802 26.11° C 20% - 0 mm - - -
1787746720 26.67° C 19% - 0 mm - - -
1787746120 25.56° C 21% - 0 mm - - -
1787745520 26.11° C 20% - 0 mm - - -

* Rain latest hour (hover to see other rain measurements)
** Current wind speed in m/s (hover to see current wind gust speed)